Irondale, Alabama
Current Conditions -  °F | °C
As of 7:53 PM on Tuesday 21 Oct 2014 (Local Time) from KBHM Reporting Station
Clear Clear  
Wind Chill: 59°   Ceiling: Unl
Heat Index: 59°   Visibility: 10mi
Dew Point: 49°   Wind: 0mph
Humidity: 69%   Direction: NA
Pressure: 30.05"   Gusts: NA
Location:  33.5393°N, 86.6626°W
Report Text: KBHM 220053Z 00000KT 10SM CLR 15/09 A3005 RMK AO2 SLP171 T01500094
Loading
Personal Weather Stations






























Interactive Weather Map
Tropical Storm Tracking
New forecast layout! Learn more

10-Day Weather Forecast

Advertisements
Track Severe Weather on mobile